Rocky Mount-Wilson Regional Airport, NC

5:54 PM EDT on August 23, 2017 (GMT -0400)
Rocky Mount-Wilson Regional | | Change Station

Elev 157 ft 35.85 °N, 77.89 °W | Updated 39 minutes ago

Overcast
Overcast
83 °F
Feels Like 88 °F
N
10
Wind Variable Wind from NW
Gusts 21 mph

Today
High -- | Low -- °F
--% Chance of Precip.
Yesterday
High -- | Low -- °F
Precip. -- in
Pressure 29.80 in
Visibility 10.0 miles
Clouds Few 4900 ft
Overcast 6000 ft
Heat Index 88 °F
Dew Point 72 °F
Humidity 69%
Rainfall 0.03 in
Snow Depth Not available.
6:36 AM 7:50 PM
Waxing Crescent, 6% visible
SPECI KRWI 232115Z AUTO 32009G18KT 10SM FEW049 OVC060 28/22 A2980 RMK AO2 LTG DSNT N AND NE T02830222
Pressure 29.80 in
Visibility 10.0 miles
Clouds Few 4900 ft
Overcast 6000 ft
Heat Index 88 °F
Dew Point 72 °F
Humidity 69%
Rainfall 0.03 in
Snow Depth Not available.
6:36 AM 7:50 PM
Waxing Crescent, 6% visible
SPECI KRWI 232115Z AUTO 32009G18KT 10SM FEW049 OVC060 28/22 A2980 RMK AO2 LTG DSNT N AND NE T02830222

Get Severe Weather Alerts

Thanks for signing up!

Be on the lookout for a verification email in your inbox.

You'll start receiving the daily forecast at 6 AM.

×

10-Day Weather Forecast

Almanac

Astronomy

Aug. 23, 2017 Rise Set
Actual Time
Civil Twilight
Nautical Twilight
Astronomical Twilight
Moon
Length of Visible Light
Length of Day
Tomorrow will be .
, % of the Moon is Illuminated

Today's Extremes

State Highs State Lows

Community

WunderPhotos

Category 6

Welcome to Category 6. This is the collective home for Weather Underground's featured writeups by Dr. Jeff Masters (right), Bob Henson (left), Chris Burt, and other regular contributors.

Nearby

Air Quality

  Air Quality AQ Index Pollutant
Not available.

Snow Depth

Station Depth Elevation

Earthquake Activity

City Distance Mag. Time & Date
Minimum magnitude displayed is 2.5.

Coastal Water Temperatures

Place Temperature

Stations

Nearby Weather Stations

Station Location Temp. Windchill Dew Point Humidity Wind Precip. Elev Updated Type
                   

Watches & Warnings

There are currently no watches in effect.